sensor_id;sensor_type;location;lat;lon;timestamp;temperature;humidity
17891;DHT22;9071;48.220;14.480;2023-09-19T00:04:08;16.90;99.90
17891;DHT22;9071;48.220;14.480;2023-09-19T00:09:13;16.90;99.90
17891;DHT22;9071;48.220;14.480;2023-09-19T00:14:19;16.90;99.90
17891;DHT22;9071;48.220;14.480;2023-09-19T00:19:21;17.00;99.90
17891;DHT22;9071;48.220;14.480;2023-09-19T00:24:26;16.90;99.90
17891;DHT22;9071;48.220;14.480;2023-09-19T00:29:35;16.90;99.90
17891;DHT22;9071;48.220;14.480;2023-09-19T00:34:38;16.80;99.90
17891;DHT22;9071;48.220;14.480;2023-09-19T00:39:42;16.80;99.90
17891;DHT22;9071;48.220;14.480;2023-09-19T00:44:49;16.80;99.90
17891;DHT22;9071;48.220;14.480;2023-09-19T00:49:54;16.80;99.90
17891;DHT22;9071;48.220;14.480;2023-09-19T00:54:58;16.80;99.90
17891;DHT22;9071;48.220;14.480;2023-09-19T01:00:08;16.70;99.90
17891;DHT22;9071;48.220;14.480;2023-09-19T01:05:18;16.70;99.90
17891;DHT22;9071;48.220;14.480;2023-09-19T01:10:24;16.70;99.90
17891;DHT22;9071;48.220;14.480;2023-09-19T01:15:40;16.70;99.90
17891;DHT22;9071;48.220;14.480;2023-09-19T01:20:57;16.70;99.90
17891;DHT22;9071;48.220;14.480;2023-09-19T01:26:25;16.70;99.90
17891;DHT22;9071;48.220;14.480;2023-09-19T01:31:34;16.70;99.90
17891;DHT22;9071;48.220;14.480;2023-09-19T01:36:41;16.60;99.90
17891;DHT22;9071;48.220;14.480;2023-09-19T01:41:54;16.60;99.90
17891;DHT22;9071;48.220;14.480;2023-09-19T01:47:04;16.60;99.90
17891;DHT22;9071;48.220;14.480;2023-09-19T01:52:13;16.60;99.90
17891;DHT22;9071;48.220;14.480;2023-09-19T01:57:27;16.70;99.90
17891;DHT22;9071;48.220;14.480;2023-09-19T02:02:36;16.70;99.90
17891;DHT22;9071;48.220;14.480;2023-09-19T02:07:40;16.70;99.90
17891;DHT22;9071;48.220;14.480;2023-09-19T02:12:42;16.80;99.90
17891;DHT22;9071;48.220;14.480;2023-09-19T02:17:45;16.70;99.90
17891;DHT22;9071;48.220;14.480;2023-09-19T02:22:51;16.70;99.90
17891;DHT22;9071;48.220;14.480;2023-09-19T02:28:08;16.70;99.90
17891;DHT22;9071;48.220;14.480;2023-09-19T02:33:12;16.60;99.90
17891;DHT22;9071;48.220;14.480;2023-09-19T02:38:16;16.60;99.90
17891;DHT22;9071;48.220;14.480;2023-09-19T02:43:25;16.60;99.90
17891;DHT22;9071;48.220;14.480;2023-09-19T02:48:29;16.60;99.90
17891;DHT22;9071;48.220;14.480;2023-09-19T02:53:33;16.60;99.90
17891;DHT22;9071;48.220;14.480;2023-09-19T02:58:36;16.50;99.90
17891;DHT22;9071;48.220;14.480;2023-09-19T03:03:40;16.50;99.90
17891;DHT22;9071;48.220;14.480;2023-09-19T03:09:13;16.40;99.90
17891;DHT22;9071;48.220;14.480;2023-09-19T03:14:17;16.30;99.90
17891;DHT22;9071;48.220;14.480;2023-09-19T03:19:22;16.20;99.90
17891;DHT22;9071;48.220;14.480;2023-09-19T03:24:24;16.30;99.90
17891;DHT22;9071;48.220;14.480;2023-09-19T03:29:26;16.20;99.90
17891;DHT22;9071;48.220;14.480;2023-09-19T03:34:30;16.20;99.90
17891;DHT22;9071;48.220;14.480;2023-09-19T03:39:32;16.10;99.90
17891;DHT22;9071;48.220;14.480;2023-09-19T03:44:34;16.00;99.90
17891;DHT22;9071;48.220;14.480;2023-09-19T03:49:38;16.00;99.90
17891;DHT22;9071;48.220;14.480;2023-09-19T03:54:40;15.90;99.90
17891;DHT22;9071;48.220;14.480;2023-09-19T03:59:44;15.80;99.90
17891;DHT22;9071;48.220;14.480;2023-09-19T04:04:49;15.80;99.90
17891;DHT22;9071;48.220;14.480;2023-09-19T04:09:53;15.80;99.90
17891;DHT22;9071;48.220;14.480;2023-09-19T04:14:56;15.80;99.90
17891;DHT22;9071;48.220;14.480;2023-09-19T04:20:00;15.80;99.90
17891;DHT22;9071;48.220;14.480;2023-09-19T04:25:02;15.90;99.90
17891;DHT22;9071;48.220;14.480;2023-09-19T04:30:06;15.90;99.90
17891;DHT22;9071;48.220;14.480;2023-09-19T04:35:12;15.80;99.90
17891;DHT22;9071;48.220;14.480;2023-09-19T04:40:15;15.80;99.90
17891;DHT22;9071;48.220;14.480;2023-09-19T04:45:21;15.70;99.90
17891;DHT22;9071;48.220;14.480;2023-09-19T04:50:26;15.60;99.90
17891;DHT22;9071;48.220;14.480;2023-09-19T04:55:28;15.60;99.90
17891;DHT22;9071;48.220;14.480;2023-09-19T05:00:31;15.60;99.90
17891;DHT22;9071;48.220;14.480;2023-09-19T05:05:37;15.60;99.90
17891;DHT22;9071;48.220;14.480;2023-09-19T05:10:39;15.70;99.90
17891;DHT22;9071;48.220;14.480;2023-09-19T05:15:42;15.70;99.90
17891;DHT22;9071;48.220;14.480;2023-09-19T05:20:46;15.60;99.90
17891;DHT22;9071;48.220;14.480;2023-09-19T05:25:51;15.70;99.90
17891;DHT22;9071;48.220;14.480;2023-09-19T05:30:53;15.80;99.90
17891;DHT22;9071;48.220;14.480;2023-09-19T05:35:57;15.90;99.90
17891;DHT22;9071;48.220;14.480;2023-09-19T05:40:59;16.00;99.90
17891;DHT22;9071;48.220;14.480;2023-09-19T05:46:02;16.10;99.90
17891;DHT22;9071;48.220;14.480;2023-09-19T05:51:06;16.10;99.90
17891;DHT22;9071;48.220;14.480;2023-09-19T05:56:08;16.30;99.90
17891;DHT22;9071;48.220;14.480;2023-09-19T06:01:16;16.60;99.90
17891;DHT22;9071;48.220;14.480;2023-09-19T06:06:20;16.70;99.90
17891;DHT22;9071;48.220;14.480;2023-09-19T06:11:24;16.80;99.90
17891;DHT22;9071;48.220;14.480;2023-09-19T06:16:27;16.90;99.90
17891;DHT22;9071;48.220;14.480;2023-09-19T06:21:30;16.90;99.90
17891;DHT22;9071;48.220;14.480;2023-09-19T06:26:33;17.10;99.90
17891;DHT22;9071;48.220;14.480;2023-09-19T06:31:35;17.10;99.90
17891;DHT22;9071;48.220;14.480;2023-09-19T06:36:38;17.30;99.90
17891;DHT22;9071;48.220;14.480;2023-09-19T06:41:43;17.70;99.90
17891;DHT22;9071;48.220;14.480;2023-09-19T06:46:48;17.90;99.90
17891;DHT22;9071;48.220;14.480;2023-09-19T06:51:57;17.90;99.90
17891;DHT22;9071;48.220;14.480;2023-09-19T06:57:06;18.10;99.90
17891;DHT22;9071;48.220;14.480;2023-09-19T07:02:13;19.10;99.90
17891;DHT22;9071;48.220;14.480;2023-09-19T07:07:20;22.10;99.90
17891;DHT22;9071;48.220;14.480;2023-09-19T07:12:27;23.70;99.90
17891;DHT22;9071;48.220;14.480;2023-09-19T07:17:35;25.90;99.90
17891;DHT22;9071;48.220;14.480;2023-09-19T07:22:43;27.40;99.90
17891;DHT22;9071;48.220;14.480;2023-09-19T07:27:50;29.10;99.90
17891;DHT22;9071;48.220;14.480;2023-09-19T07:32:58;28.10;99.90
17891;DHT22;9071;48.220;14.480;2023-09-19T07:38:05;24.80;99.90
17891;DHT22;9071;48.220;14.480;2023-09-19T07:43:09;23.90;99.90
17891;DHT22;9071;48.220;14.480;2023-09-19T07:48:14;22.80;99.90
17891;DHT22;9071;48.220;14.480;2023-09-19T07:53:19;22.20;99.90
17891;DHT22;9071;48.220;14.480;2023-09-19T07:58:22;22.80;99.90
17891;DHT22;9071;48.220;14.480;2023-09-19T08:03:26;23.90;99.90
17891;DHT22;9071;48.220;14.480;2023-09-19T08:08:34;24.30;99.90
17891;DHT22;9071;48.220;14.480;2023-09-19T08:13:41;23.00;99.90
17891;DHT22;9071;48.220;14.480;2023-09-19T08:18:49;22.30;99.90
17891;DHT22;9071;48.220;14.480;2023-09-19T08:24:01;22.10;99.90
17891;DHT22;9071;48.220;14.480;2023-09-19T08:29:07;22.40;99.90
17891;DHT22;9071;48.220;14.480;2023-09-19T08:34:15;22.10;99.90
17891;DHT22;9071;48.220;14.480;2023-09-19T08:39:20;21.70;99.90
17891;DHT22;9071;48.220;14.480;2023-09-19T08:44:30;21.50;99.90
17891;DHT22;9071;48.220;14.480;2023-09-19T08:50:00;21.30;99.90
17891;DHT22;9071;48.220;14.480;2023-09-19T08:55:19;21.20;99.90
17891;DHT22;9071;48.220;14.480;2023-09-19T09:00:28;21.30;99.90
17891;DHT22;9071;48.220;14.480;2023-09-19T09:05:31;21.50;99.90
17891;DHT22;9071;48.220;14.480;2023-09-19T09:10:39;21.20;99.90
17891;DHT22;9071;48.220;14.480;2023-09-19T09:15:44;20.90;99.90
17891;DHT22;9071;48.220;14.480;2023-09-19T09:20:54;20.70;99.90
17891;DHT22;9071;48.220;14.480;2023-09-19T09:26:00;20.70;99.90
17891;DHT22;9071;48.220;14.480;2023-09-19T09:31:06;20.70;99.90
17891;DHT22;9071;48.220;14.480;2023-09-19T09:36:39;20.80;99.90
17891;DHT22;9071;48.220;14.480;2023-09-19T09:41:51;21.30;99.90
17891;DHT22;9071;48.220;14.480;2023-09-19T09:47:01;21.60;99.90
17891;DHT22;9071;48.220;14.480;2023-09-19T09:52:19;21.40;99.90
17891;DHT22;9071;48.220;14.480;2023-09-19T09:57:30;21.60;99.90
17891;DHT22;9071;48.220;14.480;2023-09-19T10:02:44;21.90;99.90
17891;DHT22;9071;48.220;14.480;2023-09-19T10:07:48;22.30;99.90
17891;DHT22;9071;48.220;14.480;2023-09-19T10:12:55;22.70;99.90
17891;DHT22;9071;48.220;14.480;2023-09-19T10:18:05;23.30;99.90
17891;DHT22;9071;48.220;14.480;2023-09-19T10:23:10;23.30;99.90
17891;DHT22;9071;48.220;14.480;2023-09-19T10:28:16;24.00;99.90
17891;DHT22;9071;48.220;14.480;2023-09-19T10:33:23;24.70;99.90
17891;DHT22;9071;48.220;14.480;2023-09-19T10:38:27;24.50;99.90
17891;DHT22;9071;48.220;14.480;2023-09-19T10:43:33;23.70;99.90
17891;DHT22;9071;48.220;14.480;2023-09-19T10:48:39;23.80;99.90
17891;DHT22;9071;48.220;14.480;2023-09-19T10:53:48;24.50;99.90
17891;DHT22;9071;48.220;14.480;2023-09-19T10:59:06;24.70;99.90
17891;DHT22;9071;48.220;14.480;2023-09-19T11:04:24;24.10;99.90
17891;DHT22;9071;48.220;14.480;2023-09-19T11:09:43;23.80;99.90
17891;DHT22;9071;48.220;14.480;2023-09-19T11:14:47;23.60;99.90
17891;DHT22;9071;48.220;14.480;2023-09-19T11:25:44;22.70;99.90
17891;DHT22;9071;48.220;14.480;2023-09-19T11:30:52;23.10;99.90
17891;DHT22;9071;48.220;14.480;2023-09-19T11:36:02;23.60;99.90
17891;DHT22;9071;48.220;14.480;2023-09-19T11:41:37;24.40;99.90
17891;DHT22;9071;48.220;14.480;2023-09-19T11:46:53;25.40;99.90
17891;DHT22;9071;48.220;14.480;2023-09-19T11:51:57;25.30;99.90
17891;DHT22;9071;48.220;14.480;2023-09-19T11:57:01;24.30;99.90
17891;DHT22;9071;48.220;14.480;2023-09-19T12:02:06;23.30;99.90
17891;DHT22;9071;48.220;14.480;2023-09-19T12:07:10;22.60;99.90
17891;DHT22;9071;48.220;14.480;2023-09-19T12:12:19;22.30;99.90
17891;DHT22;9071;48.220;14.480;2023-09-19T12:17:23;22.20;99.90
17891;DHT22;9071;48.220;14.480;2023-09-19T12:22:25;22.40;99.90
17891;DHT22;9071;48.220;14.480;2023-09-19T12:27:27;23.00;99.90
17891;DHT22;9071;48.220;14.480;2023-09-19T12:32:37;23.30;99.90
17891;DHT22;9071;48.220;14.480;2023-09-19T12:37:43;23.30;99.90
17891;DHT22;9071;48.220;14.480;2023-09-19T12:42:47;23.30;99.90
17891;DHT22;9071;48.220;14.480;2023-09-19T12:48:18;23.40;99.90
17891;DHT22;9071;48.220;14.480;2023-09-19T12:53:25;23.10;99.90
17891;DHT22;9071;48.220;14.480;2023-09-19T12:58:31;22.30;99.90
17891;DHT22;9071;48.220;14.480;2023-09-19T13:03:36;21.50;99.90
17891;DHT22;9071;48.220;14.480;2023-09-19T13:08:39;21.10;99.90
17891;DHT22;9071;48.220;14.480;2023-09-19T13:13:44;21.30;99.90
17891;DHT22;9071;48.220;14.480;2023-09-19T13:18:51;21.50;99.90
17891;DHT22;9071;48.220;14.480;2023-09-19T13:23:55;21.80;99.90
17891;DHT22;9071;48.220;14.480;2023-09-19T13:28:59;22.50;99.90
17891;DHT22;9071;48.220;14.480;2023-09-19T13:34:03;22.90;99.90
17891;DHT22;9071;48.220;14.480;2023-09-19T13:39:05;23.10;99.90
17891;DHT22;9071;48.220;14.480;2023-09-19T13:44:09;23.30;99.90
17891;DHT22;9071;48.220;14.480;2023-09-19T13:49:13;23.40;99.90
17891;DHT22;9071;48.220;14.480;2023-09-19T13:54:15;23.40;99.90
17891;DHT22;9071;48.220;14.480;2023-09-19T13:59:17;23.60;99.90
17891;DHT22;9071;48.220;14.480;2023-09-19T14:04:21;23.50;99.90
17891;DHT22;9071;48.220;14.480;2023-09-19T14:09:23;21.80;99.90
17891;DHT22;9071;48.220;14.480;2023-09-19T14:14:26;19.40;99.90
17891;DHT22;9071;48.220;14.480;2023-09-19T14:19:29;18.30;99.90
17891;DHT22;9071;48.220;14.480;2023-09-19T14:24:31;17.80;99.90
17891;DHT22;9071;48.220;14.480;2023-09-19T14:29:33;17.60;99.90
17891;DHT22;9071;48.220;14.480;2023-09-19T14:34:37;17.70;99.90
17891;DHT22;9071;48.220;14.480;2023-09-19T14:39:42;17.90;99.90
17891;DHT22;9071;48.220;14.480;2023-09-19T14:44:45;18.20;99.90
17891;DHT22;9071;48.220;14.480;2023-09-19T14:49:49;18.50;99.90
17891;DHT22;9071;48.220;14.480;2023-09-19T14:54:51;18.70;99.90
17891;DHT22;9071;48.220;14.480;2023-09-19T14:59:53;18.80;99.90
17891;DHT22;9071;48.220;14.480;2023-09-19T15:04:57;18.80;99.90
17891;DHT22;9071;48.220;14.480;2023-09-19T15:09:59;18.90;99.90
17891;DHT22;9071;48.220;14.480;2023-09-19T15:15:01;19.00;99.90
17891;DHT22;9071;48.220;14.480;2023-09-19T15:20:07;19.20;99.90
17891;DHT22;9071;48.220;14.480;2023-09-19T15:25:09;19.30;99.90
17891;DHT22;9071;48.220;14.480;2023-09-19T15:30:12;19.40;99.90
17891;DHT22;9071;48.220;14.480;2023-09-19T15:35:17;19.40;99.90
17891;DHT22;9071;48.220;14.480;2023-09-19T15:40:19;19.30;99.90
17891;DHT22;9071;48.220;14.480;2023-09-19T15:45:24;19.10;99.90
17891;DHT22;9071;48.220;14.480;2023-09-19T15:50:28;18.90;99.90
17891;DHT22;9071;48.220;14.480;2023-09-19T15:55:30;18.70;99.90
17891;DHT22;9071;48.220;14.480;2023-09-19T16:00:32;18.50;99.90
17891;DHT22;9071;48.220;14.480;2023-09-19T16:05:38;18.40;99.90
17891;DHT22;9071;48.220;14.480;2023-09-19T16:10:40;18.30;99.90
17891;DHT22;9071;48.220;14.480;2023-09-19T16:15:42;18.20;99.90
17891;DHT22;9071;48.220;14.480;2023-09-19T16:20:46;18.20;99.90
17891;DHT22;9071;48.220;14.480;2023-09-19T16:25:48;18.10;99.90
17891;DHT22;9071;48.220;14.480;2023-09-19T16:31:01;18.00;99.90
17891;DHT22;9071;48.220;14.480;2023-09-19T16:36:09;17.90;99.90
17891;DHT22;9071;48.220;14.480;2023-09-19T16:41:12;17.90;99.90
17891;DHT22;9071;48.220;14.480;2023-09-19T16:46:14;17.80;99.90
17891;DHT22;9071;48.220;14.480;2023-09-19T16:51:19;17.70;99.90
17891;DHT22;9071;48.220;14.480;2023-09-19T16:56:35;17.50;99.90
17891;DHT22;9071;48.220;14.480;2023-09-19T17:02:00;17.30;99.90
17891;DHT22;9071;48.220;14.480;2023-09-19T17:07:06;17.10;99.90
17891;DHT22;9071;48.220;14.480;2023-09-19T17:12:08;16.90;99.90
17891;DHT22;9071;48.220;14.480;2023-09-19T17:17:11;16.80;99.90
17891;DHT22;9071;48.220;14.480;2023-09-19T17:22:17;16.60;99.90
17891;DHT22;9071;48.220;14.480;2023-09-19T17:27:21;16.40;99.90
17891;DHT22;9071;48.220;14.480;2023-09-19T17:32:23;16.30;99.90
17891;DHT22;9071;48.220;14.480;2023-09-19T17:37:27;16.20;99.90
17891;DHT22;9071;48.220;14.480;2023-09-19T17:42:29;16.00;99.90
17891;DHT22;9071;48.220;14.480;2023-09-19T17:47:31;15.90;99.90
17891;DHT22;9071;48.220;14.480;2023-09-19T17:52:35;15.90;99.90
17891;DHT22;9071;48.220;14.480;2023-09-19T17:57:37;16.00;99.90
17891;DHT22;9071;48.220;14.480;2023-09-19T18:02:41;15.80;99.90
17891;DHT22;9071;48.220;14.480;2023-09-19T18:07:44;15.60;99.90
17891;DHT22;9071;48.220;14.480;2023-09-19T18:12:48;15.40;99.90
17891;DHT22;9071;48.220;14.480;2023-09-19T18:17:51;15.20;99.90
17891;DHT22;9071;48.220;14.480;2023-09-19T18:22:55;15.10;99.90
17891;DHT22;9071;48.220;14.480;2023-09-19T18:27:57;15.20;99.90
17891;DHT22;9071;48.220;14.480;2023-09-19T18:32:59;15.10;99.90
17891;DHT22;9071;48.220;14.480;2023-09-19T18:38:03;14.90;99.90
17891;DHT22;9071;48.220;14.480;2023-09-19T18:43:05;14.80;99.90
17891;DHT22;9071;48.220;14.480;2023-09-19T18:48:07;14.80;99.90
17891;DHT22;9071;48.220;14.480;2023-09-19T18:53:11;14.70;99.90
17891;DHT22;9071;48.220;14.480;2023-09-19T18:58:13;14.60;99.90
17891;DHT22;9071;48.220;14.480;2023-09-19T19:03:15;14.60;99.90
17891;DHT22;9071;48.220;14.480;2023-09-19T19:08:20;14.60;99.90
17891;DHT22;9071;48.220;14.480;2023-09-19T19:13:23;14.60;99.90
17891;DHT22;9071;48.220;14.480;2023-09-19T19:18:25;14.50;99.90
17891;DHT22;9071;48.220;14.480;2023-09-19T19:23:30;14.40;99.90
17891;DHT22;9071;48.220;14.480;2023-09-19T19:28:33;14.30;99.90
17891;DHT22;9071;48.220;14.480;2023-09-19T19:33:37;14.50;99.90
17891;DHT22;9071;48.220;14.480;2023-09-19T19:38:45;14.40;99.90
17891;DHT22;9071;48.220;14.480;2023-09-19T19:43:47;14.40;99.90
17891;DHT22;9071;48.220;14.480;2023-09-19T19:48:50;14.40;99.90
17891;DHT22;9071;48.220;14.480;2023-09-19T19:53:53;14.30;99.90
17891;DHT22;9071;48.220;14.480;2023-09-19T19:58:56;14.30;99.90
17891;DHT22;9071;48.220;14.480;2023-09-19T20:03:59;14.30;99.90
17891;DHT22;9071;48.220;14.480;2023-09-19T20:09:03;14.30;99.90
17891;DHT22;9071;48.220;14.480;2023-09-19T20:14:07;14.40;99.90
17891;DHT22;9071;48.220;14.480;2023-09-19T20:19:09;14.50;99.90
17891;DHT22;9071;48.220;14.480;2023-09-19T20:24:12;14.50;99.90
17891;DHT22;9071;48.220;14.480;2023-09-19T20:29:20;14.40;99.90
17891;DHT22;9071;48.220;14.480;2023-09-19T20:34:22;14.40;99.90
17891;DHT22;9071;48.220;14.480;2023-09-19T20:39:27;14.30;99.90
17891;DHT22;9071;48.220;14.480;2023-09-19T20:44:30;14.30;99.90
17891;DHT22;9071;48.220;14.480;2023-09-19T20:49:32;14.30;99.90
17891;DHT22;9071;48.220;14.480;2023-09-19T20:54:35;14.20;99.90
17891;DHT22;9071;48.220;14.480;2023-09-19T20:59:37;14.00;99.90
17891;DHT22;9071;48.220;14.480;2023-09-19T21:04:39;13.80;99.90
17891;DHT22;9071;48.220;14.480;2023-09-19T21:09:43;13.70;99.90
17891;DHT22;9071;48.220;14.480;2023-09-19T21:14:45;13.70;99.90
17891;DHT22;9071;48.220;14.480;2023-09-19T21:19:47;13.60;99.90
17891;DHT22;9071;48.220;14.480;2023-09-19T21:24:51;13.50;99.90
17891;DHT22;9071;48.220;14.480;2023-09-19T21:29:54;13.50;99.90
17891;DHT22;9071;48.220;14.480;2023-09-19T21:34:56;13.40;99.90
17891;DHT22;9071;48.220;14.480;2023-09-19T21:40:02;13.30;99.90
17891;DHT22;9071;48.220;14.480;2023-09-19T21:45:05;13.30;99.90
17891;DHT22;9071;48.220;14.480;2023-09-19T21:50:09;13.20;99.90
17891;DHT22;9071;48.220;14.480;2023-09-19T21:55:13;13.10;99.90
17891;DHT22;9071;48.220;14.480;2023-09-19T22:00:16;13.10;99.90
17891;DHT22;9071;48.220;14.480;2023-09-19T22:05:35;13.10;99.90
17891;DHT22;9071;48.220;14.480;2023-09-19T22:10:43;13.10;99.90
17891;DHT22;9071;48.220;14.480;2023-09-19T22:15:46;13.10;99.90
17891;DHT22;9071;48.220;14.480;2023-09-19T22:20:48;13.10;99.90
17891;DHT22;9071;48.220;14.480;2023-09-19T22:25:53;13.30;99.90
17891;DHT22;9071;48.220;14.480;2023-09-19T22:31:01;13.50;99.90
17891;DHT22;9071;48.220;14.480;2023-09-19T22:36:09;13.80;99.90
17891;DHT22;9071;48.220;14.480;2023-09-19T22:41:14;14.00;99.90
17891;DHT22;9071;48.220;14.480;2023-09-19T22:46:17;14.00;99.90
17891;DHT22;9071;48.220;14.480;2023-09-19T22:51:22;14.10;99.90
17891;DHT22;9071;48.220;14.480;2023-09-19T22:56:38;14.00;99.90
17891;DHT22;9071;48.220;14.480;2023-09-19T23:01:41;13.80;99.90
17891;DHT22;9071;48.220;14.480;2023-09-19T23:06:44;13.70;99.90
17891;DHT22;9071;48.220;14.480;2023-09-19T23:11:53;13.50;99.90
17891;DHT22;9071;48.220;14.480;2023-09-19T23:16:56;13.40;99.90
17891;DHT22;9071;48.220;14.480;2023-09-19T23:22:01;13.30;99.90
17891;DHT22;9071;48.220;14.480;2023-09-19T23:27:11;13.30;99.90
17891;DHT22;9071;48.220;14.480;2023-09-19T23:32:25;13.40;99.90
17891;DHT22;9071;48.220;14.480;2023-09-19T23:37:27;13.40;99.90
17891;DHT22;9071;48.220;14.480;2023-09-19T23:42:31;13.50;99.90
17891;DHT22;9071;48.220;14.480;2023-09-19T23:47:33;13.50;99.90
17891;DHT22;9071;48.220;14.480;2023-09-19T23:52:36;13.50;99.90
17891;DHT22;9071;48.220;14.480;2023-09-19T23:57:40;13.30;99.90
